sensor_id;sensor_type;location;lat;lon;timestamp;pressure;altitude;pressure_sealevel;temperature;humidity
76632;BME280;65526;48.578;-4.520;2023-03-01T00:01:13;102025.25;;;2.59;85.95
76632;BME280;65526;48.578;-4.520;2023-03-01T00:03:41;101687.16;;;0.43;85.99
76632;BME280;65526;48.578;-4.520;2023-03-01T00:06:08;101702.25;;;0.51;85.86
76632;BME280;65526;48.578;-4.520;2023-03-01T00:08:35;102179.75;;;3.38;86.24
76632;BME280;65526;48.578;-4.520;2023-03-01T00:11:06;102549.56;;;5.61;86.48
76632;BME280;65526;48.578;-4.520;2023-03-01T00:13:34;101904.72;;;1.63;85.92
76632;BME280;65526;48.578;-4.520;2023-03-01T00:16:04;102231.09;;;3.70;86.00
76632;BME280;65526;48.578;-4.520;2023-03-01T00:18:31;101643.06;;;0.08;85.96
76632;BME280;65526;48.578;-4.520;2023-03-01T00:20:58;102166.75;;;3.24;86.10
76632;BME280;65526;48.578;-4.520;2023-03-01T00:23:25;101619.59;;;-0.15;85.86
76632;BME280;65526;48.578;-4.520;2023-03-01T00:25:52;101564.13;;;-0.43;85.60
76632;BME280;65526;48.578;-4.520;2023-03-01T00:28:19;102165.13;;;3.23;85.64
76632;BME280;65526;48.578;-4.520;2023-03-01T00:30:46;101761.53;;;0.18;85.74
76632;BME280;65526;48.578;-4.520;2023-03-01T00:33:13;102044.44;;;1.90;86.06
76632;BME280;65526;48.578;-4.520;2023-03-01T00:35:39;101710.03;;;0.10;85.75
76632;BME280;65526;48.578;-4.520;2023-03-01T00:38:06;101958.56;;;1.79;85.45
76632;BME280;65526;48.578;-4.520;2023-03-01T00:40:34;102236.59;;;3.75;85.95
76632;BME280;65526;48.578;-4.520;2023-03-01T00:43:02;102153.03;;;3.24;85.49
76632;BME280;65526;48.578;-4.520;2023-03-01T00:45:29;101600.97;;;-0.18;85.13
76632;BME280;65526;48.578;-4.520;2023-03-01T00:47:58;102646.28;;;5.39;85.92
76632;BME280;65526;48.578;-4.520;2023-03-01T00:50:24;101950.84;;;1.76;85.36
76632;BME280;65526;48.578;-4.520;2023-03-01T00:52:55;101650.69;;;-0.43;85.47
76632;BME280;65526;48.578;-4.520;2023-03-01T00:55:22;101943.19;;;1.73;85.63
76632;BME280;65526;48.578;-4.520;2023-03-01T00:57:49;101618.38;;;-0.51;85.21
76632;BME280;65526;48.578;-4.520;2023-03-01T01:00:16;102160.06;;;3.04;85.51
76632;BME280;65526;48.578;-4.520;2023-03-01T01:02:43;101630.19;;;-0.67;85.07
76632;BME280;65526;48.578;-4.520;2023-03-01T01:05:09;102208.34;;;3.37;85.46
76632;BME280;65526;48.578;-4.520;2023-03-01T01:07:36;101774.75;;;0.26;85.11
76632;BME280;65526;48.578;-4.520;2023-03-01T01:10:04;101804.44;;;0.93;85.11
76632;BME280;65526;48.578;-4.520;2023-03-01T01:12:31;102215.09;;;3.19;85.89
76632;BME280;65526;48.578;-4.520;2023-03-01T01:14:57;102259.00;;;3.51;85.57
76632;BME280;65526;48.578;-4.520;2023-03-01T01:17:24;101774.41;;;0.45;85.04
76632;BME280;65526;48.578;-4.520;2023-03-01T01:19:51;101991.91;;;2.03;85.79
76632;BME280;65526;48.578;-4.520;2023-03-01T01:22:17;102237.44;;;3.33;86.25
76632;BME280;65526;48.578;-4.520;2023-03-01T01:24:43;102203.97;;;3.36;86.30
76632;BME280;65526;48.578;-4.520;2023-03-01T01:27:10;102199.53;;;2.93;86.43
76632;BME280;65526;48.578;-4.520;2023-03-01T01:29:36;102230.19;;;3.17;85.41
76632;BME280;65526;48.578;-4.520;2023-03-01T01:32:03;102651.25;;;5.42;83.74
76632;BME280;65526;48.578;-4.520;2023-03-01T01:34:30;101968.50;;;1.85;82.07
76632;BME280;65526;48.578;-4.520;2023-03-01T01:36:57;101869.97;;;1.05;81.69
76632;BME280;65526;48.578;-4.520;2023-03-01T01:39:24;101594.19;;;-0.64;80.12
76632;BME280;65526;48.578;-4.520;2023-03-01T01:41:50;102105.69;;;2.01;79.64
76632;BME280;65526;48.578;-4.520;2023-03-01T01:44:23;102051.00;;;1.89;79.69
76632;BME280;65526;48.578;-4.520;2023-03-01T01:46:55;101947.03;;;1.18;79.90
76632;BME280;65526;48.578;-4.520;2023-03-01T01:49:35;102636.81;;;4.78;79.87
76632;BME280;65526;48.578;-4.520;2023-03-01T01:52:22;101846.81;;;0.20;79.84
76632;BME280;65526;48.578;-4.520;2023-03-01T01:54:56;101986.38;;;1.12;79.67
76632;BME280;65526;48.578;-4.520;2023-03-01T01:57:36;101488.22;;;-2.10;79.46
76632;BME280;65526;48.578;-4.520;2023-03-01T02:00:08;101370.22;;;-2.99;79.51
76632;BME280;65526;48.578;-4.520;2023-03-01T02:02:40;101572.09;;;-1.78;79.12
76632;BME280;65526;48.578;-4.520;2023-03-01T02:05:22;101880.44;;;-0.01;78.94
76632;BME280;65526;48.578;-4.520;2023-03-01T02:07:51;101778.47;;;-0.62;78.63
76632;BME280;65526;48.578;-4.520;2023-03-01T02:10:20;101519.53;;;-2.41;78.07
76632;BME280;65526;48.578;-4.520;2023-03-01T02:12:47;101955.00;;;0.33;78.14
76632;BME280;65526;48.578;-4.520;2023-03-01T02:15:13;102308.31;;;2.02;78.58
76632;BME280;65526;48.578;-4.520;2023-03-01T02:17:41;102299.34;;;2.07;78.36
76632;BME280;65526;48.578;-4.520;2023-03-01T02:23:03;102075.03;;;0.34;78.01
76632;BME280;65526;48.578;-4.520;2023-03-01T02:30:46;102052.06;;;0.02;78.51
76632;BME280;65526;48.578;-4.520;2023-03-01T02:33:33;101960.75;;;-0.02;79.02
76632;BME280;65526;48.578;-4.520;2023-03-01T02:36:05;102209.16;;;1.06;79.23
76632;BME280;65526;48.578;-4.520;2023-03-01T02:38:32;102602.91;;;3.55;79.76
76632;BME280;65526;48.578;-4.520;2023-03-01T02:41:00;101764.88;;;-1.97;79.30
76632;BME280;65526;48.578;-4.520;2023-03-01T02:43:30;101973.16;;;-0.11;79.65
76632;BME280;65526;48.578;-4.520;2023-03-01T02:45:58;102538.66;;;3.39;80.28
76632;BME280;65526;48.578;-4.520;2023-03-01T02:48:24;101915.78;;;-0.45;80.05
76632;BME280;65526;48.578;-4.520;2023-03-01T02:54:10;102329.69;;;1.45;80.60
76632;BME280;65526;48.578;-4.520;2023-03-01T02:56:38;102547.56;;;3.25;80.94
76632;BME280;65526;48.578;-4.520;2023-03-01T02:59:05;101937.81;;;-0.51;80.58
76632;BME280;65526;48.578;-4.520;2023-03-01T03:01:32;102268.03;;;1.09;81.00
76632;BME280;65526;48.578;-4.520;2023-03-01T03:04:07;101922.66;;;-0.59;81.18
76632;BME280;65526;48.578;-4.520;2023-03-01T03:06:34;102188.25;;;0.67;81.27
76632;BME280;65526;48.578;-4.520;2023-03-01T03:09:01;101991.06;;;-0.20;81.02
76632;BME280;65526;48.578;-4.520;2023-03-01T03:11:28;102037.13;;;-0.41;81.20
76632;BME280;65526;48.578;-4.520;2023-03-01T03:13:54;102128.50;;;0.59;81.56
76632;BME280;65526;48.578;-4.520;2023-03-01T03:16:21;102316.31;;;1.48;81.04
76632;BME280;65526;48.578;-4.520;2023-03-01T03:18:47;101706.50;;;-2.29;80.56
76632;BME280;65526;48.578;-4.520;2023-03-01T03:21:14;101534.53;;;-2.83;80.74
76632;BME280;65526;48.578;-4.520;2023-03-01T03:23:41;102281.13;;;1.24;80.17
76632;BME280;65526;48.578;-4.520;2023-03-01T03:26:08;102333.97;;;2.13;80.43
76632;BME280;65526;48.578;-4.520;2023-03-01T03:28:35;102316.91;;;1.34;80.72
76632;BME280;65526;48.578;-4.520;2023-03-01T03:31:07;102621.63;;;3.36;80.81
76632;BME280;65526;48.578;-4.520;2023-03-01T03:33:33;102613.41;;;3.36;80.56
76632;BME280;65526;48.578;-4.520;2023-03-01T03:36:00;102055.06;;;0.51;79.91
76632;BME280;65526;48.578;-4.520;2023-03-01T03:38:26;101595.09;;;-3.11;79.25
76632;BME280;65526;48.578;-4.520;2023-03-01T03:41:05;102148.81;;;1.01;79.85
76632;BME280;65526;48.578;-4.520;2023-03-01T03:43:35;101955.19;;;-0.24;79.67
76632;BME280;65526;48.578;-4.520;2023-03-01T03:46:02;101942.94;;;-0.55;79.47
76632;BME280;65526;48.578;-4.520;2023-03-01T03:48:38;101827.00;;;-0.97;79.64
76632;BME280;65526;48.578;-4.520;2023-03-01T03:51:05;102274.94;;;1.11;79.28
76632;BME280;65526;48.578;-4.520;2023-03-01T03:53:32;102247.69;;;1.38;79.29
76632;BME280;65526;48.578;-4.520;2023-03-01T03:55:59;101778.63;;;-1.18;79.04
76632;BME280;65526;48.578;-4.520;2023-03-01T03:58:25;102458.47;;;2.94;79.43
76632;BME280;65526;48.578;-4.520;2023-03-01T04:00:54;101387.97;;;-3.65;78.60
76632;BME280;65526;48.578;-4.520;2023-03-01T04:03:26;102189.00;;;0.79;79.35
76632;BME280;65526;48.578;-4.520;2023-03-01T04:05:53;101913.63;;;-1.04;78.59
76632;BME280;65526;48.578;-4.520;2023-03-01T04:08:21;101483.25;;;-3.03;78.71
76632;BME280;65526;48.578;-4.520;2023-03-01T04:10:52;102184.66;;;1.16;78.99
76632;BME280;65526;48.578;-4.520;2023-03-01T04:13:21;102540.59;;;3.39;79.18
76632;BME280;65526;48.578;-4.520;2023-03-01T04:15:52;101552.50;;;-2.54;78.26
76632;BME280;65526;48.578;-4.520;2023-03-01T04:18:22;101998.25;;;-0.14;78.54
76632;BME280;65526;48.578;-4.520;2023-03-01T04:20:51;102362.88;;;1.65;78.89
76632;BME280;65526;48.578;-4.520;2023-03-01T04:23:21;102115.25;;;0.89;78.69
76632;BME280;65526;48.578;-4.520;2023-03-01T04:25:52;102528.25;;;3.41;78.45
76632;BME280;65526;48.578;-4.520;2023-03-01T04:28:29;101959.41;;;-0.50;78.03
76632;BME280;65526;48.578;-4.520;2023-03-01T04:30:58;102149.63;;;1.18;77.58
76632;BME280;65526;48.578;-4.520;2023-03-01T04:33:25;101577.88;;;-2.36;77.66
76632;BME280;65526;48.578;-4.520;2023-03-01T04:35:52;102232.78;;;1.12;78.09
76632;BME280;65526;48.578;-4.520;2023-03-01T04:38:19;101597.81;;;-2.99;77.02
76632;BME280;65526;48.578;-4.520;2023-03-01T04:40:47;102189.81;;;0.63;77.42
76632;BME280;65526;48.578;-4.520;2023-03-01T04:43:13;102226.72;;;1.49;77.86
76632;BME280;65526;48.578;-4.520;2023-03-01T04:45:43;102276.75;;;1.23;77.64
76632;BME280;65526;48.578;-4.520;2023-03-01T04:48:10;101313.00;;;-4.75;77.08
76632;BME280;65526;48.578;-4.520;2023-03-01T04:50:36;102232.63;;;0.86;76.82
76632;BME280;65526;48.578;-4.520;2023-03-01T04:53:03;101815.91;;;-1.24;77.12
76632;BME280;65526;48.578;-4.520;2023-03-01T04:55:29;102166.28;;;0.45;77.09
76632;BME280;65526;48.578;-4.520;2023-03-01T04:57:56;102228.63;;;1.10;76.87
76632;BME280;65526;48.578;-4.520;2023-03-01T05:00:23;102700.63;;;2.91;76.38
76632;BME280;65526;48.578;-4.520;2023-03-01T05:02:52;102620.16;;;2.90;77.10
76632;BME280;65526;48.578;-4.520;2023-03-01T05:05:41;102024.69;;;-1.16;76.30
76632;BME280;65526;48.578;-4.520;2023-03-01T05:08:10;102367.56;;;1.48;76.65
76632;BME280;65526;48.578;-4.520;2023-03-01T05:10:49;102326.91;;;0.78;76.94
76632;BME280;65526;48.578;-4.520;2023-03-01T05:13:17;102030.72;;;-0.46;76.29
76632;BME280;65526;48.578;-4.520;2023-03-01T05:15:54;101500.50;;;-3.84;76.64
76632;BME280;65526;48.578;-4.520;2023-03-01T05:18:22;102275.97;;;0.77;76.69
76632;BME280;65526;48.578;-4.520;2023-03-01T05:20:52;101546.56;;;-3.42;76.43
76632;BME280;65526;48.578;-4.520;2023-03-01T05:23:22;102002.47;;;-0.68;76.18
76632;BME280;65526;48.578;-4.520;2023-03-01T05:25:49;101919.31;;;-1.34;76.48
76632;BME280;65526;48.578;-4.520;2023-03-01T05:28:19;101530.38;;;-3.61;76.22
76632;BME280;65526;48.578;-4.520;2023-03-01T05:30:46;102347.31;;;0.87;76.36
76632;BME280;65526;48.578;-4.520;2023-03-01T05:33:13;101384.09;;;-4.85;76.27
76632;BME280;65526;48.578;-4.520;2023-03-01T05:35:40;102007.72;;;-0.78;76.14
76632;BME280;65526;48.578;-4.520;2023-03-01T05:38:09;102191.06;;;0.10;75.84
76632;BME280;65526;48.578;-4.520;2023-03-01T05:40:40;102361.63;;;0.77;76.67
76632;BME280;65526;48.578;-4.520;2023-03-01T05:43:07;101921.59;;;-1.54;76.60
76632;BME280;65526;48.578;-4.520;2023-03-01T05:45:36;102640.66;;;2.32;76.91
76632;BME280;65526;48.578;-4.520;2023-03-01T05:48:03;102070.00;;;-1.39;76.59
76632;BME280;65526;48.578;-4.520;2023-03-01T05:50:36;101515.84;;;-4.01;76.50
76632;BME280;65526;48.578;-4.520;2023-03-01T05:53:09;101282.09;;;-5.51;75.94
76632;BME280;65526;48.578;-4.520;2023-03-01T05:55:37;101454.75;;;-4.57;75.97
76632;BME280;65526;48.578;-4.520;2023-03-01T05:58:12;102275.47;;;0.35;76.62
76632;BME280;65526;48.578;-4.520;2023-03-01T06:00:43;102183.22;;;-0.26;77.67
76632;BME280;65526;48.578;-4.520;2023-03-01T06:03:12;101816.69;;;-2.32;77.58
76632;BME280;65526;48.578;-4.520;2023-03-01T06:05:40;101926.88;;;-1.88;77.61
76632;BME280;65526;48.578;-4.520;2023-03-01T06:08:07;101712.81;;;-3.22;77.86
76632;BME280;65526;48.578;-4.520;2023-03-01T06:10:35;102382.06;;;0.07;78.35
76632;BME280;65526;48.578;-4.520;2023-03-01T06:13:01;102262.28;;;0.04;78.50
76632;BME280;65526;48.578;-4.520;2023-03-01T06:15:28;101928.19;;;-2.02;78.13
76632;BME280;65526;48.578;-4.520;2023-03-01T06:17:55;102193.09;;;-0.25;78.20
76632;BME280;65526;48.578;-4.520;2023-03-01T06:20:25;102546.22;;;1.95;78.58
76632;BME280;65526;48.578;-4.520;2023-03-01T06:22:52;101812.88;;;-2.54;78.08
76632;BME280;65526;48.578;-4.520;2023-03-01T06:25:20;102279.16;;;0.29;78.63
76632;BME280;65526;48.578;-4.520;2023-03-01T06:27:48;102622.31;;;1.88;78.82
76632;BME280;65526;48.578;-4.520;2023-03-01T06:30:16;101517.91;;;-4.38;78.20
76632;BME280;65526;48.578;-4.520;2023-03-01T06:32:43;102153.03;;;-0.60;78.72
76632;BME280;65526;48.578;-4.520;2023-03-01T06:35:10;102073.03;;;-1.00;78.69
76632;BME280;65526;48.578;-4.520;2023-03-01T06:37:37;102258.56;;;-0.42;78.66
76632;BME280;65526;48.578;-4.520;2023-03-01T06:40:05;101738.47;;;-3.89;77.91
76632;BME280;65526;48.578;-4.520;2023-03-01T06:42:35;102591.88;;;1.89;78.79
76632;BME280;65526;48.578;-4.520;2023-03-01T06:45:02;101652.81;;;-3.85;78.30
76632;BME280;65526;48.578;-4.520;2023-03-01T06:47:29;102114.63;;;-0.70;78.50
76632;BME280;65526;48.578;-4.520;2023-03-01T06:49:55;102367.66;;;0.11;78.64
76632;BME280;65526;48.578;-4.520;2023-03-01T06:52:22;102325.38;;;0.02;78.82
76632;BME280;65526;48.578;-4.520;2023-03-01T06:54:48;102220.09;;;-0.41;78.91
76632;BME280;65526;48.578;-4.520;2023-03-01T06:57:15;102608.84;;;1.86;79.09
76632;BME280;65526;48.578;-4.520;2023-03-01T06:59:41;101620.91;;;-4.31;78.46
76632;BME280;65526;48.578;-4.520;2023-03-01T07:02:13;102624.69;;;1.84;79.13
76632;BME280;65526;48.578;-4.520;2023-03-01T07:04:39;101651.03;;;-3.80;78.46
76632;BME280;65526;48.578;-4.520;2023-03-01T07:07:06;101912.66;;;-2.13;78.98
76632;BME280;65526;48.578;-4.520;2023-03-01T07:09:32;101506.97;;;-4.61;79.11
76632;BME280;65526;48.578;-4.520;2023-03-01T07:11:59;102028.16;;;-1.44;79.53
76632;BME280;65526;48.578;-4.520;2023-03-01T07:14:26;102223.44;;;-0.50;79.33
76632;BME280;65526;48.578;-4.520;2023-03-01T07:16:53;101922.84;;;-2.09;79.42
76632;BME280;65526;48.578;-4.520;2023-03-01T07:19:21;101963.47;;;-2.07;79.57
76632;BME280;65526;48.578;-4.520;2023-03-01T07:21:48;101919.31;;;-2.09;79.66
76632;BME280;65526;48.578;-4.520;2023-03-01T07:24:14;101565.72;;;-4.25;78.90
76632;BME280;65526;48.578;-4.520;2023-03-01T07:26:41;102219.84;;;-0.27;79.72
76632;BME280;65526;48.578;-4.520;2023-03-01T07:29:09;101829.75;;;-3.40;79.31
76632;BME280;65526;48.578;-4.520;2023-03-01T07:31:36;101495.03;;;-4.72;79.17
76632;BME280;65526;48.578;-4.520;2023-03-01T07:34:02;102015.41;;;-2.32;79.40
76632;BME280;65526;48.578;-4.520;2023-03-01T07:36:29;102579.34;;;1.93;79.97
76632;BME280;65526;48.578;-4.520;2023-03-01T07:38:55;102238.28;;;-0.58;79.80
76632;BME280;65526;48.578;-4.520;2023-03-01T07:41:21;102273.88;;;-0.41;79.54
76632;BME280;65526;48.578;-4.520;2023-03-01T07:43:48;102347.22;;;0.02;79.78
76632;BME280;65526;48.578;-4.520;2023-03-01T07:46:14;102375.34;;;0.37;79.44
76632;BME280;65526;48.578;-4.520;2023-03-01T07:48:41;101915.16;;;-1.77;79.21
76632;BME280;65526;48.578;-4.520;2023-03-01T07:51:07;101726.03;;;-3.37;78.99
76632;BME280;65526;48.578;-4.520;2023-03-01T07:53:34;102138.97;;;-0.28;79.26
76632;BME280;65526;48.578;-4.520;2023-03-01T07:56:04;102195.53;;;-0.01;79.25
76632;BME280;65526;48.578;-4.520;2023-03-01T07:58:34;102318.59;;;0.73;79.06
76632;BME280;65526;48.578;-4.520;2023-03-01T08:01:05;101810.75;;;-2.29;78.51
76632;BME280;65526;48.578;-4.520;2023-03-01T08:03:33;102295.66;;;0.34;78.99
76632;BME280;65526;48.578;-4.520;2023-03-01T08:06:01;102108.66;;;-0.67;78.78
76632;BME280;65526;48.578;-4.520;2023-03-01T08:08:27;101452.22;;;-4.17;78.42
76632;BME280;65526;48.578;-4.520;2023-03-01T08:10:58;101927.69;;;-1.24;78.83
76632;BME280;65526;48.578;-4.520;2023-03-01T08:13:25;101947.44;;;-1.05;78.83
76632;BME280;65526;48.578;-4.520;2023-03-01T08:15:52;101578.56;;;-3.56;78.46
76632;BME280;65526;48.578;-4.520;2023-03-01T08:18:19;101970.09;;;-1.05;79.07
76632;BME280;65526;48.578;-4.520;2023-03-01T08:20:47;102220.00;;;0.68;79.00
76632;BME280;65526;48.578;-4.520;2023-03-01T08:23:13;102022.84;;;-0.99;78.96
76632;BME280;65526;48.578;-4.520;2023-03-01T08:25:40;102262.81;;;0.91;79.01
76632;BME280;65526;48.578;-4.520;2023-03-01T08:28:06;102165.41;;;0.11;78.80
76632;BME280;65526;48.578;-4.520;2023-03-01T08:30:34;101954.31;;;-0.74;78.72
76632;BME280;65526;48.578;-4.520;2023-03-01T08:33:00;102117.56;;;-0.31;78.54
76632;BME280;65526;48.578;-4.520;2023-03-01T08:35:27;102308.09;;;0.98;78.35
76632;BME280;65526;48.578;-4.520;2023-03-01T08:37:53;101717.63;;;-2.31;77.85
76632;BME280;65526;48.578;-4.520;2023-03-01T08:40:19;102629.16;;;3.24;78.47
76632;BME280;65526;48.578;-4.520;2023-03-01T08:42:46;102244.91;;;1.00;78.02
76632;BME280;65526;48.578;-4.520;2023-03-01T08:45:12;101704.75;;;-2.47;77.82
76632;BME280;65526;48.578;-4.520;2023-03-01T08:47:44;101682.94;;;-2.35;77.69
76632;BME280;65526;48.578;-4.520;2023-03-01T08:50:11;102635.38;;;3.36;78.37
76632;BME280;65526;48.578;-4.520;2023-03-01T08:52:37;101964.78;;;-0.38;77.92
76632;BME280;65526;48.578;-4.520;2023-03-01T08:55:04;101953.03;;;-0.38;77.53
76632;BME280;65526;48.578;-4.520;2023-03-01T08:57:31;101953.13;;;-0.33;77.58
76632;BME280;65526;48.578;-4.520;2023-03-01T08:59:57;102647.38;;;3.52;78.06
76632;BME280;65526;48.578;-4.520;2023-03-01T09:02:24;102606.94;;;3.47;78.03
76632;BME280;65526;48.578;-4.520;2023-03-01T09:04:50;102113.56;;;0.50;77.41
76632;BME280;65526;48.578;-4.520;2023-03-01T09:07:16;102084.97;;;0.24;77.36
76632;BME280;65526;48.578;-4.520;2023-03-01T09:09:43;101590.50;;;-2.30;76.93
76632;BME280;65526;48.578;-4.520;2023-03-01T09:12:09;101557.88;;;-2.42;76.33
76632;BME280;65526;48.578;-4.520;2023-03-01T09:14:36;102305.13;;;1.88;77.15
76632;BME280;65526;48.578;-4.520;2023-03-01T09:17:04;102346.13;;;2.00;77.00
76632;BME280;65526;48.578;-4.520;2023-03-01T09:19:31;102276.97;;;2.15;76.57
76632;BME280;65526;48.578;-4.520;2023-03-01T09:21:57;101573.78;;;-2.06;76.49
76632;BME280;65526;48.578;-4.520;2023-03-01T09:24:24;101972.06;;;0.23;76.17
76632;BME280;65526;48.578;-4.520;2023-03-01T09:26:53;102207.53;;;1.87;76.75
76632;BME280;65526;48.578;-4.520;2023-03-01T09:29:21;102551.19;;;3.79;77.26
76632;BME280;65526;48.578;-4.520;2023-03-01T09:31:47;101645.28;;;-1.82;76.43
76632;BME280;65526;48.578;-4.520;2023-03-01T09:34:14;102198.38;;;2.04;76.80
76632;BME280;65526;48.578;-4.520;2023-03-01T09:36:42;102252.97;;;2.27;76.76
76632;BME280;65526;48.578;-4.520;2023-03-01T09:39:08;101960.69;;;0.70;76.68
76632;BME280;65526;48.578;-4.520;2023-03-01T09:41:43;102548.97;;;4.39;76.59
76632;BME280;65526;48.578;-4.520;2023-03-01T09:46:56;102572.63;;;4.35;75.64
76632;BME280;65526;48.578;-4.520;2023-03-01T09:49:26;101582.91;;;-1.50;75.15
76632;BME280;65526;48.578;-4.520;2023-03-01T09:54:55;102230.56;;;2.35;75.19
76632;BME280;65526;48.578;-4.520;2023-03-01T09:57:54;102537.06;;;4.71;74.97
76632;BME280;65526;48.578;-4.520;2023-03-01T10:06:08;102458.72;;;4.47;75.00
76632;BME280;65526;48.578;-4.520;2023-03-01T10:08:42;101493.09;;;-1.40;74.45
76632;BME280;65526;48.578;-4.520;2023-03-01T10:11:22;101374.19;;;-2.06;74.55
76632;BME280;65526;48.578;-4.520;2023-03-01T10:13:58;102535.56;;;5.05;75.24
76632;BME280;65526;48.578;-4.520;2023-03-01T10:19:14;101828.00;;;0.46;74.89
76632;BME280;65526;48.578;-4.520;2023-03-01T10:21:45;102086.97;;;2.56;75.21
76632;BME280;65526;48.578;-4.520;2023-03-01T10:24:14;101929.66;;;1.62;75.10
76632;BME280;65526;48.578;-4.520;2023-03-01T10:26:48;101610.41;;;-0.53;74.86
76632;BME280;65526;48.578;-4.520;2023-03-01T10:29:23;102300.47;;;3.92;75.28
76632;BME280;65526;48.578;-4.520;2023-03-01T10:31:52;102595.09;;;5.58;75.48
76632;BME280;65526;48.578;-4.520;2023-03-01T10:34:31;102303.66;;;3.74;75.31
76632;BME280;65526;48.578;-4.520;2023-03-01T10:37:14;102515.94;;;5.74;75.35
76632;BME280;65526;48.578;-4.520;2023-03-01T10:42:34;101800.53;;;1.48;74.65
76632;BME280;65526;48.578;-4.520;2023-03-01T10:45:37;101903.22;;;2.24;74.54
76632;BME280;65526;48.578;-4.520;2023-03-01T10:48:11;102359.75;;;4.87;74.24
76632;BME280;65526;48.578;-4.520;2023-03-01T10:50:48;101888.63;;;2.09;73.91
76632;BME280;65526;48.578;-4.520;2023-03-01T10:53:22;102494.75;;;6.05;74.75
76632;BME280;65526;48.578;-4.520;2023-03-01T10:56:04;101504.47;;;0.03;74.41
76632;BME280;65526;48.578;-4.520;2023-03-01T10:58:33;102123.28;;;3.68;75.30
76632;BME280;65526;48.578;-4.520;2023-03-01T11:01:03;102123.22;;;3.52;73.94
76632;BME280;65526;48.578;-4.520;2023-03-01T11:03:38;101715.50;;;0.96;73.92
76632;BME280;65526;48.578;-4.520;2023-03-01T11:08:46;102255.09;;;4.97;71.27
76632;BME280;65526;48.578;-4.520;2023-03-01T11:13:55;102469.75;;;6.76;70.35
76632;BME280;65526;48.578;-4.520;2023-03-01T11:16:25;101695.06;;;2.13;69.35
76632;BME280;65526;48.578;-4.520;2023-03-01T11:22:18;101864.34;;;3.35;70.74
76632;BME280;65526;48.578;-4.520;2023-03-01T11:24:44;101685.47;;;2.25;72.73
76632;BME280;65526;48.578;-4.520;2023-03-01T11:27:27;101519.19;;;1.48;71.41
76632;BME280;65526;48.578;-4.520;2023-03-01T11:30:32;102452.97;;;7.22;71.31
76632;BME280;65526;48.578;-4.520;2023-03-01T11:33:05;102446.28;;;7.28;70.55
76632;BME280;65526;48.578;-4.520;2023-03-01T11:35:42;101868.16;;;3.80;69.39
76632;BME280;65526;48.578;-4.520;2023-03-01T11:43:28;101845.91;;;3.26;69.82
76632;BME280;65526;48.578;-4.520;2023-03-01T11:51:57;102120.50;;;5.50;69.60
76632;BME280;65526;48.578;-4.520;2023-03-01T12:00:14;102128.84;;;5.19;70.53
76632;BME280;65526;48.578;-4.520;2023-03-01T12:08:40;102096.34;;;5.16;72.69
76632;BME280;65526;48.578;-4.520;2023-03-01T12:11:56;101582.63;;;2.18;71.11
76632;BME280;65526;48.578;-4.520;2023-03-01T12:14:55;102244.03;;;6.27;71.78
76632;BME280;65526;48.578;-4.520;2023-03-01T12:17:30;102407.78;;;7.36;71.55
76632;BME280;65526;48.578;-4.520;2023-03-01T12:25:38;102410.66;;;7.26;72.53
76632;BME280;65526;48.578;-4.520;2023-03-01T12:31:42;102391.94;;;7.13;73.09
76632;BME280;65526;48.578;-4.520;2023-03-01T12:34:08;102391.06;;;7.18;72.80
76632;BME280;65526;48.578;-4.520;2023-03-01T12:37:11;102386.03;;;7.25;72.86
76632;BME280;65526;48.578;-4.520;2023-03-01T12:42:48;102381.38;;;7.20;73.30
76632;BME280;65526;48.578;-4.520;2023-03-01T12:45:30;102375.44;;;6.98;75.06
76632;BME280;65526;48.578;-4.520;2023-03-01T12:48:36;101656.16;;;2.41;74.44
76632;BME280;65526;48.578;-4.520;2023-03-01T12:51:11;102132.69;;;5.29;73.05
76632;BME280;65526;48.578;-4.520;2023-03-01T12:53:44;101485.44;;;1.23;73.02
76632;BME280;65526;48.578;-4.520;2023-03-01T12:56:21;101573.88;;;2.46;73.57
76632;BME280;65526;48.578;-4.520;2023-03-01T13:12:44;101466.69;;;1.82;71.01
76632;BME280;65526;48.578;-4.520;2023-03-01T13:17:52;101947.38;;;4.98;71.26
76632;BME280;65526;48.578;-4.520;2023-03-01T13:20:21;102358.56;;;7.38;70.69
76632;BME280;65526;48.578;-4.520;2023-03-01T13:23:23;101927.31;;;4.82;73.28
76632;BME280;65526;48.578;-4.520;2023-03-01T13:28:39;102179.81;;;6.12;73.18
76632;BME280;65526;48.578;-4.520;2023-03-01T13:31:10;101761.25;;;3.68;73.55
76632;BME280;65526;48.578;-4.520;2023-03-01T13:33:47;101580.44;;;2.15;73.20
76632;BME280;65526;48.578;-4.520;2023-03-01T13:39:43;101790.16;;;3.25;74.12
76632;BME280;65526;48.578;-4.520;2023-03-01T13:41:54;101400.06;;;1.46;73.91
76632;BME280;65526;48.578;-4.520;2023-03-01T13:49:58;101592.78;;;2.68;73.65
76632;BME280;65526;48.578;-4.520;2023-03-01T13:52:53;102037.19;;;4.89;74.87
76632;BME280;65526;48.578;-4.520;2023-03-01T13:55:27;101664.88;;;3.24;73.65
76632;BME280;65526;48.578;-4.520;2023-03-01T13:57:59;102280.47;;;7.18;72.91
76632;BME280;65526;48.578;-4.520;2023-03-01T14:03:16;101712.06;;;3.51;74.54
76632;BME280;65526;48.578;-4.520;2023-03-01T14:08:30;101268.63;;;0.90;71.92
76632;BME280;65526;48.578;-4.520;2023-03-01T14:14:08;102086.41;;;5.90;73.28
76632;BME280;65526;48.578;-4.520;2023-03-01T14:19:17;101701.88;;;3.57;72.72
76632;BME280;65526;48.578;-4.520;2023-03-01T14:21:46;102257.22;;;6.85;72.66
76632;BME280;65526;48.578;-4.520;2023-03-01T14:24:23;101735.13;;;3.76;73.24
76632;BME280;65526;48.578;-4.520;2023-03-01T14:26:49;102258.19;;;7.04;72.27
76632;BME280;65526;48.578;-4.520;2023-03-01T14:29:42;101319.53;;;1.42;71.35
76632;BME280;65526;48.578;-4.520;2023-03-01T14:34:43;101726.44;;;3.28;72.47
76632;BME280;65526;48.578;-4.520;2023-03-01T14:37:50;102096.94;;;6.22;72.84
76632;BME280;65526;48.578;-4.520;2023-03-01T14:40:30;101329.13;;;1.59;72.07
76632;BME280;65526;48.578;-4.520;2023-03-01T14:43:00;101314.06;;;1.11;71.11
76632;BME280;65526;48.578;-4.520;2023-03-01T14:45:29;102256.41;;;7.18;71.53
76632;BME280;65526;48.578;-4.520;2023-03-01T14:48:00;101810.28;;;4.30;70.84
76632;BME280;65526;48.578;-4.520;2023-03-01T14:50:30;101874.69;;;4.19;72.51
76632;BME280;65526;48.578;-4.520;2023-03-01T14:53:03;101633.25;;;3.37;71.66
76632;BME280;65526;48.578;-4.520;2023-03-01T14:55:40;101376.50;;;1.45;70.87